Time;durP1;ratioP1;P1;durP2;ratioP2;P2;SDS_P1;SDS_P2;PMS_P1;PMS_P2;Temp;Humidity;BMP_temperature;BMP_pressure;BME280_temperature;BME280_humidity;BME280_pressure;Samples;Min_cycle;Max_cycle;Signal;HPM_P1;HPM_P2
2023/06/10 00:01:25;;;;;;;16.95;11.45;;;13.90;99.90;;;;;;5052399;28;20146;-71
2023/06/10 00:03:53;;;;;;;18.08;11.02;;;13.90;99.90;;;;;;5051808;28;20025;-70
2023/06/10 00:06:21;;;;;;;20.35;10.85;;;13.90;99.90;;;;;;5052366;28;20083;-70
2023/06/10 00:08:47;;;;;;;14.10;10.75;;;13.90;99.90;;;;;;5052920;28;20435;-70
2023/06/10 00:11:13;;;;;;;17.92;11.18;;;13.90;99.90;;;;;;5052255;28;20025;-70
2023/06/10 00:13:40;;;;;;;16.33;10.60;;;13.90;99.90;;;;;;5052760;28;20036;-70
2023/06/10 00:16:05;;;;;;;12.68;10.40;;;13.90;99.90;;;;;;5052298;28;20064;-73
2023/06/10 00:18:31;;;;;;;13.73;10.38;;;13.90;99.90;;;;;;5053076;28;20118;-70
2023/06/10 00:21:04;;;;;;;13.65;10.50;;;13.90;99.90;;;;;;5052920;28;20542;-70
2023/06/10 00:23:30;;;;;;;15.68;11.00;;;13.90;99.90;;;;;;5052746;28;20056;-70
2023/06/10 00:25:59;;;;;;;14.18;11.15;;;13.90;99.90;;;;;;5052484;28;20041;-70
2023/06/10 00:28:25;;;;;;;14.38;10.60;;;13.90;99.90;;;;;;5052334;28;20059;-70
2023/06/10 00:30:51;;;;;;;19.08;11.48;;;13.90;99.90;;;;;;5053239;28;20029;-69
2023/06/10 00:33:17;;;;;;;17.15;12.27;;;13.90;99.90;;;;;;5052635;28;20029;-70
2023/06/10 00:35:42;;;;;;;18.73;12.38;;;13.90;99.90;;;;;;5053428;28;20047;-70
2023/06/10 00:38:08;;;;;;;19.77;13.60;;;13.80;99.90;;;;;;5053031;28;20029;-71
2023/06/10 00:40:40;;;;;;;19.85;13.90;;;13.80;99.90;;;;;;5053277;28;20089;-69
2023/06/10 00:43:07;;;;;;;22.98;13.55;;;13.70;99.90;;;;;;5053228;28;20124;-71
2023/06/10 00:45:32;;;;;;;22.23;14.70;;;13.70;99.90;;;;;;5051200;28;20047;-69
2023/06/10 00:48:03;;;;;;;18.55;14.30;;;13.70;99.90;;;;;;5052863;28;20033;-69
2023/06/10 00:50:29;;;;;;;23.05;15.40;;;13.70;99.90;;;;;;5052387;28;20013;-70
2023/06/10 00:52:55;;;;;;;22.05;14.02;;;13.60;99.90;;;;;;5053116;28;20338;-69
2023/06/10 00:55:21;;;;;;;24.80;14.13;;;13.60;99.90;;;;;;5052388;28;20093;-69
2023/06/10 00:57:51;;;;;;;19.33;13.85;;;13.70;99.90;;;;;;5052799;28;20130;-69
2023/06/10 01:00:17;;;;;;;18.27;13.18;;;13.70;99.90;;;;;;5052186;28;20029;-69
2023/06/10 01:02:43;;;;;;;17.77;13.82;;;13.70;99.90;;;;;;5052462;28;20444;-69
2023/06/10 01:05:09;;;;;;;20.02;13.82;;;13.70;99.90;;;;;;5051558;28;20096;-72
2023/06/10 01:07:47;;;;;;;18.30;12.90;;;13.60;99.90;;;;;;5052531;28;20029;-69
2023/06/10 01:10:38;;;;;;;19.13;13.63;;;13.60;99.90;;;;;;5051930;28;20025;-69
2023/06/10 01:13:07;;;;;;;20.92;14.57;;;13.70;99.90;;;;;;5052641;28;20021;-69
2023/06/10 01:15:35;;;;;;;17.65;13.48;;;13.60;99.90;;;;;;5051678;28;20060;-69
2023/06/10 01:18:09;;;;;;;17.70;12.63;;;13.50;99.90;;;;;;5052211;28;20091;-69
2023/06/10 01:20:39;;;;;;;21.27;14.02;;;13.50;99.90;;;;;;5050897;28;20037;-69
2023/06/10 01:23:06;;;;;;;20.50;14.68;;;13.50;99.90;;;;;;5052419;28;20131;-68
2023/06/10 01:25:36;;;;;;;25.77;14.48;;;13.50;99.90;;;;;;5051595;28;20099;-69
2023/06/10 01:28:03;;;;;;;21.83;14.43;;;13.50;99.90;;;;;;5051827;28;20056;-69
2023/06/10 01:30:37;;;;;;;19.45;13.70;;;13.50;99.90;;;;;;5051538;28;20803;-69
2023/06/10 01:33:07;;;;;;;26.80;14.50;;;13.50;99.90;;;;;;5052321;28;20040;-69
2023/06/10 01:35:34;;;;;;;18.73;14.15;;;13.40;99.90;;;;;;5051569;28;20112;-69
2023/06/10 01:38:02;;;;;;;17.45;12.30;;;13.40;99.90;;;;;;5052210;28;20025;-69
2023/06/10 01:40:29;;;;;;;19.20;13.77;;;13.40;99.90;;;;;;5051670;28;20056;-70
2023/06/10 01:42:55;;;;;;;18.13;14.35;;;13.30;99.90;;;;;;5051882;28;20025;-69
2023/06/10 01:45:21;;;;;;;19.00;12.55;;;13.30;99.90;;;;;;5051568;28;20032;-70
2023/06/10 01:47:47;;;;;;;18.88;13.00;;;13.30;99.90;;;;;;5052137;28;20028;-69
2023/06/10 01:50:12;;;;;;;19.80;13.82;;;13.30;99.90;;;;;;5051732;28;20091;-72
2023/06/10 01:52:39;;;;;;;21.08;13.25;;;13.30;99.90;;;;;;5050625;28;20090;-69
2023/06/10 01:55:05;;;;;;;20.15;13.68;;;13.20;99.90;;;;;;5052082;28;20211;-69
2023/06/10 01:57:31;;;;;;;19.90;13.70;;;13.20;99.90;;;;;;5051203;28;20221;-69
2023/06/10 01:59:56;;;;;;;23.20;12.95;;;13.30;99.90;;;;;;5051713;28;20545;-69
2023/06/10 02:02:22;;;;;;;19.23;14.02;;;13.30;99.90;;;;;;5050991;28;20029;-69
2023/06/10 02:04:48;;;;;;;16.13;12.82;;;13.30;99.90;;;;;;5051737;28;20071;-69
2023/06/10 02:07:13;;;;;;;19.15;13.43;;;13.20;99.90;;;;;;5051204;28;20111;-72
2023/06/10 02:09:39;;;;;;;16.88;12.93;;;13.30;99.90;;;;;;5051651;28;20426;-69
2023/06/10 02:12:06;;;;;;;17.85;12.82;;;13.30;99.90;;;;;;5051668;28;20041;-69
2023/06/10 02:14:32;;;;;;;16.63;12.20;;;13.30;99.90;;;;;;5050759;28;20839;-69
2023/06/10 02:16:58;;;;;;;17.92;12.98;;;13.30;99.90;;;;;;5050962;28;20423;-69
2023/06/10 02:19:26;;;;;;;15.43;12.18;;;13.40;99.90;;;;;;5050583;28;20021;-69
2023/06/10 02:21:52;;;;;;;22.27;13.70;;;13.40;99.90;;;;;;5051032;28;20407;-69
2023/06/10 02:24:18;;;;;;;23.58;14.95;;;13.50;99.90;;;;;;5050710;28;20024;-69
2023/06/10 02:26:45;;;;;;;19.70;14.65;;;13.50;99.90;;;;;;5051040;28;20380;-69
2023/06/10 02:29:10;;;;;;;23.25;13.95;;;13.50;99.90;;;;;;5051242;28;20039;-69
2023/06/10 02:31:37;;;;;;;24.77;15.65;;;13.60;99.90;;;;;;5050373;28;20033;-69
2023/06/10 02:34:03;;;;;;;29.77;17.17;;;13.60;99.90;;;;;;5051084;28;20028;-69
2023/06/10 02:36:29;;;;;;;22.80;16.63;;;13.60;99.90;;;;;;5050768;28;20056;-69
2023/06/10 02:38:55;;;;;;;28.33;18.50;;;13.70;99.90;;;;;;5051064;28;20104;-69
2023/06/10 02:41:21;;;;;;;26.42;18.48;;;13.70;99.90;;;;;;5050141;28;20017;-70
2023/06/10 02:43:47;;;;;;;32.15;19.33;;;13.90;99.90;;;;;;5049485;28;20029;-70
2023/06/10 02:46:13;;;;;;;27.58;18.50;;;13.90;99.90;;;;;;5050482;28;20033;-70
2023/06/10 02:48:46;;;;;;;22.88;16.48;;;14.00;99.90;;;;;;5050022;28;20029;-69
2023/06/10 02:51:11;;;;;;;31.52;17.90;;;14.00;99.90;;;;;;5049587;28;20025;-70
2023/06/10 02:53:37;;;;;;;31.92;18.00;;;14.10;99.90;;;;;;5049895;28;20489;-70
2023/06/10 02:56:03;;;;;;;28.13;17.35;;;14.20;99.90;;;;;;5050410;28;20033;-70
2023/06/10 02:58:29;;;;;;;29.25;17.65;;;14.20;99.90;;;;;;5049923;28;20331;-70
2023/06/10 03:00:55;;;;;;;28.60;17.95;;;14.20;99.90;;;;;;5050511;28;20122;-70
2023/06/10 03:03:22;;;;;;;31.77;20.08;;;14.30;99.90;;;;;;5049949;28;20029;-70
2023/06/10 03:05:48;;;;;;;34.45;17.75;;;14.30;99.90;;;;;;5050693;28;20437;-70
2023/06/10 03:08:14;;;;;;;29.60;17.73;;;14.30;99.90;;;;;;5050037;28;20312;-70
2023/06/10 03:10:40;;;;;;;27.35;17.90;;;14.40;99.90;;;;;;5049906;28;20059;-70
2023/06/10 03:13:06;;;;;;;26.50;17.77;;;14.40;99.90;;;;;;5050687;28;20394;-70
2023/06/10 03:15:33;;;;;;;29.48;18.42;;;14.40;99.90;;;;;;5049720;28;20084;-70
2023/06/10 03:18:00;;;;;;;34.03;20.02;;;14.50;99.90;;;;;;5050556;28;20029;-70
2023/06/10 03:20:27;;;;;;;28.35;18.77;;;14.50;99.90;;;;;;5049290;28;20028;-70
2023/06/10 03:22:53;;;;;;;33.22;19.45;;;14.50;99.90;;;;;;5048897;28;20111;-70
2023/06/10 03:25:20;;;;;;;27.70;18.95;;;14.50;99.90;;;;;;5050051;28;20128;-73
2023/06/10 03:27:46;;;;;;;31.67;18.90;;;14.50;99.90;;;;;;5049387;28;20083;-70
2023/06/10 03:30:13;;;;;;;36.75;20.25;;;14.50;99.90;;;;;;5048710;28;20028;-69
2023/06/10 03:32:40;;;;;;;42.78;19.88;;;14.50;99.90;;;;;;5049524;28;20044;-70
2023/06/10 03:35:07;;;;;;;32.08;20.17;;;14.50;99.90;;;;;;5050206;28;20048;-70
2023/06/10 03:37:33;;;;;;;32.28;19.35;;;14.40;99.90;;;;;;5049575;28;20060;-70
2023/06/10 03:39:59;;;;;;;31.10;17.40;;;14.40;99.90;;;;;;5049895;28;20056;-69
2023/06/10 03:42:24;;;;;;;37.90;19.60;;;14.40;99.90;;;;;;5049039;28;20036;-70
2023/06/10 03:44:50;;;;;;;41.55;19.92;;;14.40;99.90;;;;;;5048559;28;20434;-69
2023/06/10 03:47:16;;;;;;;34.20;17.52;;;14.40;99.90;;;;;;5049898;28;20039;-69
2023/06/10 03:49:42;;;;;;;33.20;17.20;;;14.40;99.90;;;;;;5049222;28;20277;-70
2023/06/10 03:52:08;;;;;;;29.55;17.60;;;14.50;99.90;;;;;;5049876;28;20458;-69
2023/06/10 03:54:36;;;;;;;27.92;17.60;;;14.50;99.90;;;;;;5049462;28;20056;-69
2023/06/10 03:57:03;;;;;;;29.42;17.30;;;14.50;99.90;;;;;;5049999;28;20036;-70
2023/06/10 03:59:29;;;;;;;26.58;18.20;;;14.60;99.90;;;;;;5049300;28;20132;-70
2023/06/10 04:01:54;;;;;;;35.47;18.85;;;14.60;99.90;;;;;;5049358;28;20108;-69
2023/06/10 04:04:20;;;;;;;27.58;17.70;;;14.50;99.90;;;;;;5049907;28;20515;-72
2023/06/10 04:06:46;;;;;;;35.20;17.35;;;14.50;99.90;;;;;;5049166;28;20029;-70
2023/06/10 04:09:12;;;;;;;31.05;18.10;;;14.60;99.90;;;;;;5049446;28;20382;-69
2023/06/10 04:11:38;;;;;;;32.80;17.23;;;14.50;99.90;;;;;;5048945;28;20029;-70
2023/06/10 04:14:04;;;;;;;28.63;16.95;;;14.60;99.90;;;;;;5049335;28;20013;-69
2023/06/10 04:16:29;;;;;;;32.45;16.95;;;14.60;99.90;;;;;;5049129;28;20532;-70
2023/06/10 04:18:55;;;;;;;26.95;16.52;;;14.60;99.90;;;;;;5049196;28;20155;-70
2023/06/10 04:21:21;;;;;;;27.40;16.45;;;14.60;99.90;;;;;;5049118;28;20355;-72
2023/06/10 04:23:48;;;;;;;30.55;15.05;;;14.60;99.90;;;;;;5049117;28;20047;-70
2023/06/10 04:26:14;;;;;;;27.23;16.30;;;14.60;99.90;;;;;;5049078;28;20653;-69
2023/06/10 04:28:39;;;;;;;30.35;16.17;;;14.60;99.90;;;;;;5048842;28;20112;-70
2023/06/10 04:31:05;;;;;;;30.55;15.60;;;14.60;99.90;;;;;;5049448;28;20411;-69
2023/06/10 04:33:31;;;;;;;32.65;16.27;;;14.60;99.90;;;;;;5048781;28;20378;-70
2023/06/10 04:35:57;;;;;;;23.83;16.40;;;14.60;99.90;;;;;;5049523;28;20032;-69
2023/06/10 04:38:23;;;;;;;29.48;16.38;;;14.60;99.90;;;;;;5049162;28;20021;-72
2023/06/10 04:40:49;;;;;;;30.08;16.48;;;14.60;99.90;;;;;;5052950;28;20025;-69
2023/06/10 04:43:15;;;;;;;29.02;15.50;;;14.60;99.90;;;;;;5053130;28;20116;-69
2023/06/10 04:45:44;;;;;;;29.20;14.85;;;14.60;99.90;;;;;;5052672;28;20032;-70
2023/06/10 04:48:10;;;;;;;31.20;15.35;;;14.60;99.90;;;;;;5052817;28;20121;-70
2023/06/10 04:50:37;;;;;;;23.05;14.02;;;14.70;99.90;;;;;;5052730;28;20070;-70
2023/06/10 04:53:03;;;;;;;24.27;13.63;;;14.70;99.90;;;;;;5052418;28;20106;-69
2023/06/10 04:55:29;;;;;;;19.92;14.05;;;14.70;99.90;;;;;;5052272;28;20025;-70
2023/06/10 04:57:55;;;;;;;24.35;14.07;;;14.80;99.90;;;;;;5052977;28;20192;-70
2023/06/10 05:00:21;;;;;;;26.42;14.85;;;14.80;99.90;;;;;;5052880;28;20089;-69
2023/06/10 05:02:49;;;;;;;29.75;15.68;;;14.80;99.90;;;;;;5052278;28;20033;-70
2023/06/10 05:05:18;;;;;;;24.58;14.52;;;14.80;99.90;;;;;;5052505;28;20116;-70
2023/06/10 05:07:44;;;;;;;24.98;13.85;;;14.90;99.90;;;;;;5051920;28;20283;-70
2023/06/10 05:10:11;;;;;;;24.33;13.95;;;14.90;99.90;;;;;;5052708;28;20025;-70
2023/06/10 05:12:40;;;;;;;22.42;13.20;;;15.00;99.90;;;;;;5051515;28;20036;-70
2023/06/10 05:15:07;;;;;;;23.38;13.52;;;15.10;99.90;;;;;;5052435;28;20029;-69
2023/06/10 05:17:34;;;;;;;28.42;15.07;;;15.10;99.90;;;;;;5052085;28;20113;-70
2023/06/10 05:20:01;;;;;;;20.55;13.35;;;15.20;99.90;;;;;;5052152;28;20482;-69
2023/06/10 05:22:27;;;;;;;24.48;14.57;;;15.20;99.90;;;;;;5052047;28;20029;-72
2023/06/10 05:24:53;;;;;;;23.27;13.13;;;15.30;99.90;;;;;;5052248;28;20098;-70
2023/06/10 05:27:19;;;;;;;24.42;12.70;;;15.30;99.90;;;;;;5052333;28;20053;-70
2023/06/10 05:29:45;;;;;;;28.13;13.88;;;15.30;99.90;;;;;;5051757;28;20248;-69
2023/06/10 05:32:11;;;;;;;21.70;12.45;;;15.30;99.90;;;;;;5051103;28;20115;-70
2023/06/10 05:34:37;;;;;;;27.00;13.18;;;15.30;99.90;;;;;;5051782;28;20029;-70
2023/06/10 05:37:03;;;;;;;30.15;13.85;;;15.30;99.90;;;;;;5052223;28;20039;-70
2023/06/10 05:39:29;;;;;;;22.42;12.57;;;15.30;99.90;;;;;;5051333;28;20087;-70
2023/06/10 05:41:55;;;;;;;24.10;12.15;;;15.30;99.90;;;;;;5052434;28;20028;-70
2023/06/10 05:44:21;;;;;;;19.70;12.93;;;15.40;99.90;;;;;;5051858;28;20032;-70
2023/06/10 05:46:46;;;;;;;27.02;13.40;;;15.40;99.90;;;;;;5051600;28;20025;-70
2023/06/10 05:49:12;;;;;;;22.67;12.32;;;15.40;99.90;;;;;;5051926;28;20493;-68
2023/06/10 05:51:38;;;;;;;25.50;13.05;;;15.40;99.90;;;;;;5051675;28;20029;-71
2023/06/10 05:54:04;;;;;;;28.38;12.70;;;15.40;99.90;;;;;;5051490;28;20083;-71
2023/06/10 05:56:29;;;;;;;25.35;12.45;;;15.40;99.90;;;;;;5051288;28;20108;-71
2023/06/10 05:58:56;;;;;;;21.98;12.23;;;15.40;99.90;;;;;;5051979;28;20086;-71
2023/06/10 06:01:22;;;;;;;25.48;13.13;;;15.40;99.90;;;;;;5052186;28;20055;-71
2023/06/10 06:03:47;;;;;;;28.92;12.80;;;15.50;99.90;;;;;;5051402;28;20643;-71
2023/06/10 06:06:13;;;;;;;26.58;12.50;;;15.50;99.90;;;;;;5051908;28;20104;-71
2023/06/10 06:08:39;;;;;;;23.42;11.70;;;15.60;99.90;;;;;;5050076;28;20031;-71
2023/06/10 06:11:04;;;;;;;30.13;13.00;;;15.60;99.90;;;;;;5051802;28;20021;-71
2023/06/10 06:13:30;;;;;;;24.52;12.60;;;15.70;99.90;;;;;;5050995;28;20421;-72
2023/06/10 06:15:56;;;;;;;21.67;11.15;;;15.70;99.90;;;;;;5051637;28;20036;-71
2023/06/10 06:18:22;;;;;;;28.13;11.45;;;15.80;99.90;;;;;;5051268;28;20033;-71
2023/06/10 06:20:47;;;;;;;30.55;11.98;;;15.90;99.90;;;;;;5050479;28;20044;-71
2023/06/10 06:23:13;;;;;;;28.05;12.25;;;15.90;99.90;;;;;;5051003;28;20055;-71
2023/06/10 06:25:39;;;;;;;30.15;12.93;;;15.90;99.90;;;;;;5050023;28;20028;-71
2023/06/10 06:28:10;;;;;;;22.83;12.70;;;15.90;99.90;;;;;;5050964;28;20069;-71
2023/06/10 06:30:36;;;;;;;25.13;11.80;;;16.00;99.90;;;;;;5050219;28;20025;-71
2023/06/10 06:33:02;;;;;;;26.13;11.55;;;16.00;99.90;;;;;;5051124;28;20338;-71
2023/06/10 06:35:31;;;;;;;26.98;12.80;;;16.10;99.90;;;;;;5032649;28;20493;-72
2023/06/10 06:37:58;;;;;;;21.95;11.93;;;16.20;99.90;;;;;;5049206;28;20040;-71
2023/06/10 06:40:24;;;;;;;24.77;11.07;;;16.30;99.90;;;;;;5050789;28;20035;-71
2023/06/10 06:42:50;;;;;;;29.25;11.80;;;16.30;99.90;;;;;;5050332;28;20128;-71
2023/06/10 06:45:15;;;;;;;29.90;12.25;;;16.30;99.90;;;;;;5050828;28;20033;-71
2023/06/10 06:47:41;;;;;;;24.42;11.02;;;16.20;99.90;;;;;;5049864;28;20125;-71
2023/06/10 06:50:07;;;;;;;30.38;12.38;;;16.20;99.90;;;;;;5050455;28;20056;-71
2023/06/10 06:52:33;;;;;;;31.00;12.68;;;16.20;99.90;;;;;;5050303;28;20028;-72
2023/06/10 06:54:59;;;;;;;20.13;11.43;;;16.20;99.90;;;;;;5050712;28;20377;-72
2023/06/10 06:57:24;;;;;;;29.08;11.98;;;16.30;99.90;;;;;;5050598;28;20479;-72
2023/06/10 06:59:50;;;;;;;23.83;11.27;;;16.40;99.90;;;;;;5049835;28;20615;-70
2023/06/10 07:02:16;;;;;;;27.55;11.95;;;16.60;99.90;;;;;;5050272;28;20127;-69
2023/06/10 07:04:41;;;;;;;22.02;11.70;;;16.80;99.90;;;;;;5050020;28;20033;-70
2023/06/10 07:07:09;;;;;;;29.25;11.38;;;17.10;99.90;;;;;;5050209;28;20068;-70
2023/06/10 07:09:34;;;;;;;21.40;10.82;;;17.40;99.90;;;;;;5049562;28;20041;-70
2023/06/10 07:12:00;;;;;;;17.73;9.52;;;17.70;99.90;;;;;;5049864;28;20137;-70
2023/06/10 07:14:26;;;;;;;20.70;10.13;;;17.90;99.90;;;;;;5050196;28;20021;-70
2023/06/10 07:16:52;;;;;;;20.00;10.40;;;18.20;99.90;;;;;;5049819;28;20032;-70
2023/06/10 07:19:18;;;;;;;25.10;10.52;;;18.30;99.90;;;;;;5050212;28;20025;-70
2023/06/10 07:21:43;;;;;;;21.20;11.10;;;18.50;99.90;;;;;;5049352;28;20025;-70
2023/06/10 07:24:09;;;;;;;29.25;9.77;;;18.40;99.90;;;;;;5049488;28;20455;-70
2023/06/10 07:26:35;;;;;;;22.75;10.20;;;18.20;99.90;;;;;;5048564;28;20068;-72
2023/06/10 07:29:00;;;;;;;24.95;11.32;;;18.20;99.90;;;;;;5049230;28;20028;-70
2023/06/10 07:31:26;;;;;;;22.90;10.80;;;18.00;99.90;;;;;;5048975;28;20098;-71
2023/06/10 07:33:52;;;;;;;25.95;10.93;;;17.90;99.90;;;;;;5049514;28;20079;-70
2023/06/10 07:36:17;;;;;;;26.17;12.07;;;17.70;99.90;;;;;;5049076;28;20025;-70
2023/06/10 07:38:43;;;;;;;26.98;11.25;;;17.70;99.90;;;;;;5049091;28;20025;-70
2023/06/10 07:41:09;;;;;;;23.38;10.90;;;17.70;99.90;;;;;;5049228;28;20116;-70
2023/06/10 07:43:35;;;;;;;22.90;10.13;;;17.70;99.90;;;;;;5049105;28;20025;-72
2023/06/10 07:46:01;;;;;;;22.73;10.30;;;17.60;99.90;;;;;;5064951;28;20090;-69
2023/06/10 07:48:26;;;;;;;31.02;11.32;;;17.70;99.90;;;;;;5049285;28;20346;-70
2023/06/10 07:50:52;;;;;;;21.00;9.57;;;17.70;99.90;;;;;;5049187;28;20032;-70
2023/06/10 07:53:18;;;;;;;35.15;11.30;;;17.60;99.90;;;;;;5049555;28;20029;-69
2023/06/10 07:55:44;;;;;;;22.45;11.05;;;17.50;99.90;;;;;;5047142;28;20089;-71
2023/06/10 07:58:10;;;;;;;21.30;11.00;;;17.50;99.90;;;;;;5049421;28;20032;-70
2023/06/10 08:00:35;;;;;;;27.77;10.85;;;17.60;99.90;;;;;;5049382;28;20104;-72
2023/06/10 08:03:01;;;;;;;24.13;10.80;;;17.70;99.90;;;;;;5048973;28;20118;-70
2023/06/10 08:05:27;;;;;;;24.25;11.30;;;17.80;99.90;;;;;;5049425;28;20025;-70
2023/06/10 08:07:52;;;;;;;17.65;9.75;;;17.80;99.90;;;;;;5048544;28;20047;-70
2023/06/10 08:10:18;;;;;;;22.63;11.15;;;17.90;99.90;;;;;;5049696;28;20071;-70
2023/06/10 08:12:44;;;;;;;24.52;11.23;;;17.90;99.90;;;;;;5047585;28;20029;-70
2023/06/10 08:15:10;;;;;;;20.23;9.80;;;17.90;99.90;;;;;;5052402;28;20052;-70
2023/06/10 08:17:38;;;;;;;25.85;11.07;;;18.10;99.90;;;;;;5053490;28;20055;-72
2023/06/10 08:20:04;;;;;;;23.85;11.57;;;18.00;99.90;;;;;;5053618;28;20024;-70
2023/06/10 08:22:30;;;;;;;21.17;10.85;;;18.00;99.90;;;;;;5053352;28;20455;-69
2023/06/10 08:24:56;;;;;;;20.90;10.32;;;18.00;99.90;;;;;;5051412;28;20057;-69
2023/06/10 08:27:21;;;;;;;23.77;11.13;;;18.10;99.90;;;;;;5051267;28;20045;-69
2023/06/10 08:29:47;;;;;;;22.70;11.15;;;18.20;99.90;;;;;;5052711;28;20454;-70
2023/06/10 08:32:13;;;;;;;17.60;10.32;;;18.30;99.90;;;;;;5053270;28;20120;-69
2023/06/10 08:34:39;;;;;;;21.02;11.10;;;18.40;99.90;;;;;;5052856;28;20045;-73
2023/06/10 08:37:05;;;;;;;22.42;10.55;;;18.50;99.90;;;;;;5052989;28;20029;-71
2023/06/10 08:39:33;;;;;;;23.10;11.18;;;18.60;99.90;;;;;;5053201;28;20032;-71
2023/06/10 08:42:23;;;;;;;21.33;10.25;;;18.50;99.90;;;;;;5052174;28;20481;-71
2023/06/10 08:44:52;;;;;;;22.27;10.68;;;18.50;99.90;;;;;;5052531;28;20036;-71
2023/06/10 08:47:21;;;;;;;26.55;11.13;;;18.40;99.90;;;;;;5052923;28;20422;-71
2023/06/10 08:49:48;;;;;;;19.85;10.20;;;18.40;99.90;;;;;;5052043;28;20036;-71
2023/06/10 08:52:20;;;;;;;24.85;11.15;;;18.30;99.90;;;;;;5052978;28;20025;-71
2023/06/10 08:54:54;;;;;;;22.70;10.02;;;18.40;99.90;;;;;;5052002;28;20113;-71
2023/06/10 08:57:21;;;;;;;24.73;11.23;;;18.30;99.90;;;;;;5052344;28;20447;-70
2023/06/10 08:59:48;;;;;;;19.17;11.52;;;18.40;99.90;;;;;;5052216;28;20025;-71
2023/06/10 09:02:14;;;;;;;21.85;10.82;;;18.20;99.90;;;;;;5052561;28;20028;-71
2023/06/10 09:04:43;;;;;;;30.75;11.55;;;18.20;99.90;;;;;;5052131;28;20331;-74
2023/06/10 09:07:10;;;;;;;23.10;10.65;;;18.10;99.90;;;;;;5052610;28;20033;-71
2023/06/10 09:09:36;;;;;;;20.13;10.60;;;18.20;99.90;;;;;;5052306;28;20077;-71
2023/06/10 09:12:03;;;;;;;18.80;10.27;;;18.30;99.90;;;;;;5051776;28;20159;-72
2023/06/10 09:14:29;;;;;;;23.38;12.18;;;18.30;99.90;;;;;;5052118;28;20391;-71
2023/06/10 09:16:57;;;;;;;25.17;10.88;;;18.40;99.90;;;;;;5052031;28;20073;-72
2023/06/10 09:19:26;;;;;;;22.30;10.50;;;18.40;99.90;;;;;;5052282;28;20408;-71
2023/06/10 09:21:52;;;;;;;21.38;10.70;;;18.50;99.90;;;;;;5051844;28;20018;-71
2023/06/10 09:24:18;;;;;;;28.00;11.15;;;18.50;99.90;;;;;;5051807;28;20086;-71
2023/06/10 09:26:45;;;;;;;23.08;11.23;;;18.60;99.90;;;;;;5051319;28;20449;-72
2023/06/10 09:29:11;;;;;;;23.25;11.02;;;18.70;99.90;;;;;;5052296;28;20033;-71
2023/06/10 09:31:40;;;;;;;25.13;11.77;;;18.60;99.90;;;;;;5052104;28;20041;-71
2023/06/10 09:34:11;;;;;;;21.05;10.52;;;18.60;99.90;;;;;;5050166;28;20021;-71
2023/06/10 09:36:38;;;;;;;20.83;10.07;;;18.60;99.90;;;;;;5051775;28;20061;-71
2023/06/10 09:39:04;;;;;;;22.35;11.95;;;18.70;99.90;;;;;;5051386;28;20036;-69
2023/06/10 09:41:40;;;;;;;29.85;11.98;;;18.90;99.90;;;;;;5051913;28;20028;-70
2023/06/10 09:44:18;;;;;;;26.08;11.20;;;18.90;99.90;;;;;;5051567;28;20104;-70
2023/06/10 09:46:46;;;;;;;23.50;11.68;;;19.10;99.90;;;;;;5051224;28;20552;-73
2023/06/10 09:49:13;;;;;;;21.08;11.10;;;19.20;99.90;;;;;;5050220;28;20138;-70
2023/06/10 09:51:53;;;;;;;27.63;11.80;;;19.40;99.90;;;;;;5051777;28;20021;-70
2023/06/10 09:54:19;;;;;;;28.33;11.30;;;19.50;99.90;;;;;;5050052;28;20124;-71
2023/06/10 09:56:49;;;;;;;26.88;10.65;;;19.60;99.90;;;;;;5050971;28;20095;-71
2023/06/10 09:59:15;;;;;;;20.85;11.52;;;19.60;99.90;;;;;;5050026;28;20043;-70
2023/06/10 10:01:41;;;;;;;35.63;11.85;;;19.40;99.90;;;;;;5051328;28;20348;-70
2023/06/10 10:04:07;;;;;;;22.98;10.52;;;19.30;99.90;;;;;;5049499;28;20159;-70
2023/06/10 10:06:35;;;;;;;27.17;11.48;;;19.30;99.90;;;;;;5050931;28;20163;-72
2023/06/10 10:09:01;;;;;;;25.38;11.07;;;19.10;99.90;;;;;;5050471;28;20025;-70
2023/06/10 10:11:27;;;;;;;22.25;11.13;;;19.00;99.90;;;;;;5051280;28;20112;-70
2023/06/10 10:13:53;;;;;;;27.60;11.55;;;19.00;99.90;;;;;;5050302;28;20037;-70
2023/06/10 10:16:38;;;;;;;17.63;10.90;;;18.80;99.90;;;;;;5051213;28;20093;-70
2023/06/10 10:19:11;;;;;;;21.92;12.27;;;18.60;99.90;;;;;;5050556;28;20024;-70
2023/06/10 10:21:54;;;;;;;24.17;11.48;;;18.60;99.90;;;;;;5051189;28;20045;-70
2023/06/10 10:24:33;;;;;;;18.80;10.80;;;18.60;99.90;;;;;;5051037;28;20070;-70
2023/06/10 10:27:01;;;;;;;22.20;12.05;;;18.60;99.90;;;;;;5049824;28;20048;-72
2023/06/10 10:29:35;;;;;;;26.70;11.75;;;18.60;99.90;;;;;;5050909;28;20028;-72
2023/06/10 10:32:01;;;;;;;22.88;11.82;;;18.60;99.90;;;;;;5033069;28;20476;-70
2023/06/10 10:34:52;;;;;;;25.70;12.55;;;18.40;99.90;;;;;;5050533;28;20102;-71
2023/06/10 10:37:19;;;;;;;23.65;13.07;;;18.30;99.90;;;;;;5048500;28;20036;-72
2023/06/10 10:39:45;;;;;;;24.23;13.57;;;18.20;99.90;;;;;;5050391;28;20029;-75
2023/06/10 10:42:12;;;;;;;27.85;14.70;;;18.20;99.90;;;;;;5050587;28;20351;-72
2023/06/10 10:44:39;;;;;;;29.83;14.00;;;18.20;99.90;;;;;;5050573;28;20382;-72
2023/06/10 10:47:09;;;;;;;22.38;13.13;;;18.10;99.90;;;;;;5050104;28;20109;-72
2023/06/10 10:49:37;;;;;;;24.23;13.63;;;18.20;99.90;;;;;;5050321;28;20036;-72
2023/06/10 10:52:06;;;;;;;34.53;15.65;;;18.20;99.90;;;;;;5050057;28;20455;-72
2023/06/10 10:54:35;;;;;;;26.55;13.63;;;18.30;99.90;;;;;;5050335;28;20040;-72
2023/06/10 10:57:11;;;;;;;29.08;14.70;;;18.20;99.90;;;;;;5048519;28;20025;-72
2023/06/10 10:59:56;;;;;;;28.75;14.13;;;18.30;99.90;;;;;;5050082;28;20021;-72
2023/06/10 11:02:42;;;;;;;24.90;13.30;;;18.40;99.90;;;;;;5050135;28;20025;-72
2023/06/10 11:05:10;;;;;;;30.23;13.90;;;18.50;99.90;;;;;;5049617;28;20070;-72
2023/06/10 11:07:38;;;;;;;26.67;14.65;;;18.50;99.90;;;;;;5050341;28;20470;-72
2023/06/10 11:10:12;;;;;;;26.13;13.98;;;18.50;99.90;;;;;;5049726;28;20092;-72
2023/06/10 11:12:52;;;;;;;26.27;13.68;;;18.70;99.90;;;;;;5050276;28;20106;-72
2023/06/10 11:15:29;;;;;;;26.17;13.93;;;19.00;99.90;;;;;;5050126;28;20090;-71
2023/06/10 11:18:12;;;;;;;25.98;13.65;;;19.30;99.90;;;;;;5049659;28;20025;-71
2023/06/10 11:20:50;;;;;;;23.05;13.18;;;19.50;99.90;;;;;;5049907;28;20435;-71
2023/06/10 11:23:28;;;;;;;24.50;13.45;;;19.70;99.90;;;;;;5049321;28;20108;-71
2023/06/10 11:26:20;;;;;;;24.25;12.63;;;19.80;99.90;;;;;;5049278;28;20100;-71
2023/06/10 11:28:46;;;;;;;25.33;12.18;;;19.80;99.90;;;;;;5049066;28;20114;-72
2023/06/10 11:31:23;;;;;;;23.73;12.32;;;19.80;99.90;;;;;;5048564;28;20033;-72
2023/06/10 11:33:56;;;;;;;23.75;12.10;;;19.80;99.90;;;;;;5049074;28;20023;-75
2023/06/10 11:36:23;;;;;;;21.80;12.57;;;19.80;99.90;;;;;;5048992;28;20052;-75
2023/06/10 11:38:53;;;;;;;26.25;12.10;;;19.90;99.90;;;;;;5048988;28;20025;-75
2023/06/10 11:41:18;;;;;;;21.83;12.68;;;19.80;99.90;;;;;;5049549;28;20032;-71
2023/06/10 11:43:45;;;;;;;20.38;11.93;;;19.90;99.90;;;;;;5048745;28;20421;-72
2023/06/10 11:46:14;;;;;;;31.45;13.00;;;20.00;99.90;;;;;;5048837;28;20039;-72
2023/06/10 11:48:52;;;;;;;22.67;12.25;;;20.00;99.90;;;;;;5051131;28;20021;-72
2023/06/10 11:51:18;;;;;;;29.75;12.88;;;20.00;99.90;;;;;;5053040;28;20253;-72
2023/06/10 11:53:46;;;;;;;28.70;13.32;;;20.20;99.90;;;;;;5052963;28;20366;-72
2023/06/10 11:56:12;;;;;;;22.63;11.70;;;20.20;99.90;;;;;;5052038;28;20021;-72
2023/06/10 11:58:43;;;;;;;20.05;11.98;;;20.40;99.90;;;;;;5052924;28;20096;-72
2023/06/10 12:01:09;;;;;;;24.73;12.35;;;20.40;99.90;;;;;;5052186;28;20632;-72
2023/06/10 12:03:38;;;;;;;28.65;12.82;;;20.50;99.90;;;;;;5052884;28;20025;-71
2023/06/10 12:06:05;;;;;;;24.55;14.13;;;20.40;99.90;;;;;;5050996;28;20510;-72
2023/06/10 12:08:32;;;;;;;28.23;12.00;;;20.30;99.90;;;;;;5052595;28;20037;-72
2023/06/10 12:10:58;;;;;;;28.90;13.18;;;20.20;99.90;;;;;;5052322;28;20117;-72
2023/06/10 12:13:28;;;;;;;21.48;13.57;;;20.00;99.90;;;;;;5052834;28;20362;-72
2023/06/10 12:15:54;;;;;;;27.23;14.00;;;20.00;99.90;;;;;;5051558;28;20334;-72
2023/06/10 12:18:24;;;;;;;21.52;13.70;;;20.00;99.90;;;;;;5053075;28;20172;-72
2023/06/10 12:20:51;;;;;;;29.08;14.27;;;20.20;99.90;;;;;;5052400;28;20025;-75
2023/06/10 12:23:18;;;;;;;25.95;12.90;;;20.30;99.90;;;;;;5052505;28;20027;-72
2023/06/10 12:25:54;;;;;;;21.02;12.90;;;20.40;99.90;;;;;;5051296;28;20453;-72
2023/06/10 12:28:25;;;;;;;28.10;13.45;;;20.50;99.90;;;;;;5052315;28;20267;-72
2023/06/10 12:30:51;;;;;;;25.55;12.57;;;20.50;99.90;;;;;;5051878;28;20033;-75